createdAt,value
2023-01-19T00:01:59.037Z,98811.44
2023-01-19T00:05:04.004Z,98813.00
2023-01-19T00:08:14.880Z,98800.53
2023-01-19T00:11:18.481Z,98812.78
2023-01-19T00:14:21.042Z,98804.31
2023-01-19T00:17:23.501Z,98802.94
2023-01-19T00:20:25.961Z,98812.78
2023-01-19T00:23:28.544Z,98812.47
2023-01-19T00:26:31.097Z,98794.25
2023-01-19T00:29:34.353Z,98816.84
2023-01-19T00:32:36.777Z,98813.63
2023-01-19T00:35:39.492Z,98804.13
2023-01-19T00:38:42.001Z,98819.97
2023-01-19T00:42:03.177Z,98809.28
2023-01-19T00:45:09.277Z,98810.09
2023-01-19T00:48:11.912Z,98793.50
2023-01-19T00:51:14.487Z,98811.69
2023-01-19T00:54:17.020Z,98818.81
2023-01-19T00:57:19.472Z,98811.91
2023-01-19T01:00:22.591Z,98795.47
2023-01-19T01:03:28.176Z,98787.97
2023-01-19T01:06:31.028Z,98798.84
2023-01-19T01:09:33.537Z,98770.19
2023-01-19T01:12:37.327Z,98792.53
2023-01-19T01:15:40.138Z,98781.66
2023-01-19T01:18:43.390Z,98774.75
2023-01-19T01:21:45.838Z,98780.28
2023-01-19T01:24:48.296Z,98767.03
2023-01-19T01:27:51.479Z,98759.13
2023-01-19T01:30:55.693Z,98767.84
2023-01-19T01:33:58.167Z,98776.53
2023-01-19T01:37:00.612Z,98775.78
2023-01-19T01:40:04.867Z,98773.03
2023-01-19T01:43:13.589Z,98772.03
2023-01-19T01:46:17.583Z,98770.06
2023-01-19T01:49:20.175Z,98778.38
2023-01-19T01:52:26.361Z,98781.53
2023-01-19T01:55:30.598Z,98791.03
2023-01-19T01:58:34.333Z,98773.06
2023-01-19T02:01:55.760Z,98796.75
2023-01-19T02:05:04.259Z,98795.97
2023-01-19T02:08:33.415Z,98825.63
2023-01-19T02:11:55.150Z,98817.72
2023-01-19T02:14:57.692Z,98835.50
2023-01-19T02:18:00.273Z,98835.09
2023-01-19T02:21:11.615Z,98816.91
2023-01-19T02:24:14.690Z,98780.75
2023-01-19T02:27:17.379Z,98775.41
2023-01-19T02:30:20.090Z,98792.00
2023-01-19T02:33:22.755Z,98795.13
2023-01-19T02:36:30.290Z,98819.22
2023-01-19T02:39:50.850Z,98823.16
2023-01-19T02:42:58.773Z,98816.25
2023-01-19T02:46:01.384Z,98788.38
2023-01-19T02:49:03.989Z,98789.38
2023-01-19T02:52:15.557Z,98780.66
2023-01-19T02:55:25.593Z,98765.81
2023-01-19T02:58:39.563Z,98779.69
2023-01-19T03:02:09.992Z,98785.59
2023-01-19T03:05:30.760Z,98805.94
2023-01-19T03:08:53.085Z,98794.66
2023-01-19T03:12:09.647Z,98816.59
2023-01-19T03:15:23.045Z,98799.78
2023-01-19T03:18:29.793Z,98789.88
2023-01-19T03:21:35.766Z,98810.78
2023-01-19T03:24:42.184Z,98842.66
2023-01-19T03:27:47.199Z,98846.75
2023-01-19T03:31:01.746Z,98843.81
2023-01-19T03:34:08.045Z,98844.03
2023-01-19T03:37:14.262Z,98814.00
2023-01-19T03:40:20.409Z,98779.84
2023-01-19T03:43:25.542Z,98771.94
2023-01-19T03:46:28.802Z,98764.41
2023-01-19T03:49:31.887Z,98761.03
2023-01-19T03:52:34.631Z,98763.78
2023-01-19T03:55:39.065Z,98761.06
2023-01-19T03:58:42.408Z,98777.44
2023-01-19T04:01:45.299Z,98778.78
2023-01-19T04:04:47.868Z,98794.75
2023-01-19T04:07:52.157Z,98815.88
2023-01-19T04:10:54.736Z,98816.09
2023-01-19T04:13:57.294Z,98809.34
2023-01-19T04:17:00.190Z,98797.69
2023-01-19T04:20:03.158Z,98816.03
2023-01-19T04:23:05.745Z,98789.81
2023-01-19T04:26:09.183Z,98801.91
2023-01-19T04:29:11.643Z,98788.19
2023-01-19T04:32:14.815Z,98789.81
2023-01-19T04:35:17.484Z,98806.38
2023-01-19T04:38:20.342Z,98788.59
2023-01-19T04:41:22.875Z,98790.94
2023-01-19T04:44:25.268Z,98800.41
2023-01-19T04:47:27.711Z,98786.41
2023-01-19T04:50:30.835Z,98792.94
2023-01-19T04:53:33.237Z,98784.13
2023-01-19T04:56:36.042Z,98775.22
2023-01-19T04:59:38.425Z,98769.47
2023-01-19T05:02:44.239Z,98775.59
2023-01-19T05:05:46.859Z,98759.63
2023-01-19T05:08:49.251Z,98791.28
2023-01-19T05:11:51.706Z,98803.69
2023-01-19T05:14:54.170Z,98818.50
2023-01-19T05:17:58.147Z,98812.03
2023-01-19T05:21:02.349Z,98804.53
2023-01-19T05:24:04.972Z,98815.22
2023-01-19T05:27:07.559Z,98823.13
2023-01-19T05:30:11.017Z,98832.00
2023-01-19T05:33:13.539Z,98811.84
2023-01-19T05:36:16.059Z,98842.34
2023-01-19T05:39:18.926Z,98843.72
2023-01-19T05:42:21.388Z,98846.72
2023-01-19T05:45:23.809Z,98844.13
2023-01-19T05:48:26.502Z,98844.72
2023-01-19T05:51:35.356Z,98837.06
2023-01-19T05:54:40.347Z,98829.91
2023-01-19T05:57:43.367Z,98824.38
2023-01-19T06:00:45.831Z,98814.69
2023-01-19T06:03:48.934Z,98821.28
2023-01-19T06:06:51.789Z,98796.75
2023-01-19T06:09:54.251Z,98784.88
2023-01-19T06:12:57.154Z,98807.41
2023-01-19T06:16:01.463Z,98790.03
2023-01-19T06:19:04.457Z,98805.47
2023-01-19T06:22:06.962Z,98785.28
2023-01-19T06:25:10.174Z,98786.44
2023-01-19T06:28:12.664Z,98815.91
2023-01-19T06:31:15.290Z,98804.25
2023-01-19T06:34:19.072Z,98790.22
2023-01-19T06:37:21.651Z,98777.38
2023-01-19T06:40:24.296Z,98793.22
2023-01-19T06:43:27.136Z,98789.84
2023-01-19T06:46:29.994Z,98806.06
2023-01-19T06:49:32.863Z,98813.97
2023-01-19T06:52:42.224Z,98828.38
2023-01-19T06:55:44.780Z,98827.19
2023-01-19T06:58:48.599Z,98826.03
2023-01-19T07:01:51.275Z,98833.13
2023-01-19T07:04:55.184Z,98813.16
2023-01-19T07:07:57.940Z,98818.91
2023-01-19T07:11:26.542Z,98816.75
2023-01-19T07:14:33.566Z,98819.88
2023-01-19T07:17:36.092Z,98815.94
2023-01-19T07:20:38.634Z,98798.75
2023-01-19T07:23:41.289Z,98805.88
2023-01-19T07:26:43.882Z,98798.34
2023-01-19T07:29:46.314Z,98836.72
2023-01-19T07:32:48.869Z,98839.88
2023-01-19T07:35:52.611Z,98854.31
2023-01-19T07:38:55.133Z,98844.25
2023-01-19T07:41:58.253Z,98841.25
2023-01-19T07:45:01.011Z,98835.50
2023-01-19T07:48:03.672Z,98838.47
2023-01-19T07:51:10.421Z,98834.34
2023-01-19T07:54:14.999Z,98834.75
2023-01-19T07:57:17.889Z,98841.84
2023-01-19T08:00:24.613Z,98840.84
2023-01-19T08:03:27.335Z,98854.91
2023-01-19T08:06:35.294Z,98836.53
2023-01-19T08:09:37.777Z,98839.50
2023-01-19T08:12:41.954Z,98827.59
2023-01-19T08:15:45.028Z,98837.88
2023-01-19T08:18:47.860Z,98843.63
2023-01-19T08:21:50.310Z,98834.16
2023-01-19T08:24:53.102Z,98842.47
2023-01-19T08:27:56.620Z,98831.78
2023-01-19T08:31:08.027Z,98841.25
2023-01-19T08:34:17.242Z,98829.97
2023-01-19T08:37:19.721Z,98837.09
2023-01-19T08:40:23.080Z,98822.84
2023-01-19T08:43:26.890Z,98829.97
2023-01-19T08:46:29.875Z,98835.13
2023-01-19T08:49:32.418Z,98834.72
2023-01-19T08:52:35.667Z,98845.81
2023-01-19T08:55:39.470Z,98851.09
2023-01-19T08:58:43.993Z,98846.38
2023-01-19T09:01:46.697Z,98864.41
2023-01-19T09:04:50.180Z,98861.63
2023-01-19T09:07:53.655Z,98845.81
2023-01-19T09:10:56.521Z,98856.66
2023-01-19T09:13:59.091Z,98846.78
2023-01-19T09:17:01.603Z,98832.34
2023-01-19T09:20:05.986Z,98838.88
2023-01-19T09:23:14.025Z,98825.03
2023-01-19T09:26:17.423Z,98838.66
2023-01-19T09:29:20.092Z,98848.75
2023-01-19T09:32:23.087Z,98848.38
2023-01-19T09:35:26.003Z,98851.31
2023-01-19T09:38:31.554Z,98830.91
2023-01-19T09:41:36.425Z,98818.44
2023-01-19T09:44:43.467Z,98833.50
2023-01-19T09:47:48.643Z,98838.25
2023-01-19T09:50:54.287Z,98845.78
2023-01-19T09:54:19.390Z,98836.09
2023-01-19T09:57:23.996Z,98830.16
2023-01-19T10:00:28.983Z,98825.22
2023-01-19T10:03:35.552Z,98831.91
2023-01-19T10:06:38.151Z,98838.09
2023-01-19T10:10:20.292Z,98853.13
2023-01-19T10:13:31.896Z,98848.38
2023-01-19T10:17:07.036Z,98853.34
2023-01-19T10:20:35.167Z,98852.16
2023-01-19T10:23:54.828Z,98847.59
2023-01-19T10:26:57.469Z,98849.97
2023-01-19T10:30:01.771Z,98848.78
2023-01-19T10:33:05.127Z,98857.69
2023-01-19T10:36:18.065Z,98840.66
2023-01-19T10:39:21.250Z,98851.13
2023-01-19T10:42:27.543Z,98848.00
2023-01-19T10:45:31.762Z,98854.13
2023-01-19T10:48:42.154Z,98865.19
2023-01-19T10:51:49.037Z,98867.97
2023-01-19T10:54:52.003Z,98877.47
2023-01-19T10:57:54.840Z,98873.31
2023-01-19T11:01:13.830Z,98870.75
2023-01-19T11:04:27.700Z,98866.78
2023-01-19T11:07:33.104Z,98878.25
2023-01-19T11:10:36.233Z,98870.16
2023-01-19T11:13:40.544Z,98882.59
2023-01-19T11:16:47.494Z,98885.78
2023-01-19T11:19:56.277Z,98870.72
2023-01-19T11:23:05.351Z,98881.38
2023-01-19T11:26:15.675Z,98870.75
2023-01-19T11:29:24.482Z,98878.25
2023-01-19T11:32:27.746Z,98882.00
2023-01-19T11:35:34.031Z,98885.97
2023-01-19T11:38:43.655Z,98876.66
2023-01-19T11:41:51.342Z,98883.00
2023-01-19T11:45:05.879Z,98887.53
2023-01-19T11:48:22.549Z,98884.59
2023-01-19T11:51:49.531Z,98884.59
2023-01-19T11:55:06.222Z,98898.22
2023-01-19T11:58:15.917Z,98897.22
2023-01-19T12:01:30.079Z,98907.50
2023-01-19T12:04:40.447Z,98897.44
2023-01-19T12:07:45.210Z,98901.03
2023-01-19T12:10:50.626Z,98903.00
2023-01-19T12:13:54.322Z,98904.78
2023-01-19T12:17:01.046Z,98913.28
2023-01-19T12:20:13.900Z,98931.28
2023-01-19T12:23:38.727Z,98921.59
2023-01-19T12:26:51.314Z,98926.34
2023-01-19T12:29:55.107Z,98938.81
2023-01-19T12:33:34.997Z,98944.97
2023-01-19T12:36:38.927Z,98932.09
2023-01-19T12:39:49.045Z,98937.03
2023-01-19T12:43:06.003Z,98942.38
2023-01-19T12:46:31.834Z,98946.53
2023-01-19T12:49:40.234Z,98950.31
2023-01-19T12:52:51.752Z,98941.97
2023-01-19T12:56:01.086Z,98950.31
2023-01-19T12:59:05.904Z,98946.34
2023-01-19T13:02:20.810Z,98960.59
2023-01-19T13:05:33.136Z,98976.22
2023-01-19T13:09:43.897Z,98964.31
2023-01-19T13:13:16.572Z,98979.13
2023-01-19T13:16:19.625Z,98973.59
2023-01-19T13:19:32.465Z,98976.34
2023-01-19T13:22:49.958Z,98998.69
2023-01-19T13:25:58.933Z,99006.97
2023-01-19T13:29:34.548Z,99010.31
2023-01-19T13:32:42.308Z,99013.44
2023-01-19T13:35:56.290Z,99021.81
2023-01-19T13:39:18.348Z,99038.81
2023-01-19T13:42:29.423Z,99051.06
2023-01-19T13:45:37.064Z,99026.91
2023-01-19T13:48:40.209Z,99052.66
2023-01-19T13:51:42.865Z,99060.22
2023-01-19T13:54:53.325Z,99059.38
2023-01-19T13:58:01.613Z,99043.13
2023-01-19T14:01:04.159Z,99043.38
2023-01-19T14:04:23.808Z,99077.84
2023-01-19T14:07:26.690Z,99070.53
2023-01-19T14:10:31.373Z,99066.91
2023-01-19T14:13:37.439Z,99077.59
2023-01-19T14:16:40.028Z,99082.47
2023-01-19T14:19:54.224Z,99090.56
2023-01-19T14:22:56.816Z,99075.06
2023-01-19T14:25:59.297Z,99080.22
2023-01-19T14:29:27.932Z,99081.78
2023-01-19T14:32:30.666Z,99088.81
2023-01-19T14:35:34.724Z,99072.41
2023-01-19T14:38:37.255Z,99055.41
2023-01-19T14:41:52.325Z,99072.94
2023-01-19T14:44:56.899Z,99091.75
2023-01-19T14:48:12.117Z,99100.78
2023-01-19T14:51:20.296Z,99108.63
2023-01-19T14:54:34.342Z,99101.09
2023-01-19T14:57:37.901Z,99112.91
2023-01-19T15:00:41.983Z,99123.63
2023-01-19T15:03:45.782Z,99127.56
2023-01-19T15:06:48.660Z,99125.06
2023-01-19T15:09:51.786Z,99108.31
2023-01-19T15:12:54.943Z,99136.84
2023-01-19T15:15:58.416Z,99137.41
2023-01-19T15:19:01.075Z,99151.72
2023-01-19T15:22:11.303Z,99150.31
2023-01-19T15:25:16.062Z,99160.97
2023-01-19T15:28:20.048Z,99168.00
2023-01-19T15:31:24.792Z,99155.00
2023-01-19T15:34:27.342Z,99176.56
2023-01-19T15:37:29.803Z,99161.03
2023-01-19T15:40:32.412Z,99159.03
2023-01-19T15:43:34.794Z,99188.06
2023-01-19T15:46:37.410Z,99193.28
2023-01-19T15:49:39.879Z,99167.47
2023-01-19T15:52:43.899Z,99195.41
2023-01-19T15:55:51.219Z,99184.94
2023-01-19T15:58:54.795Z,99185.66
2023-01-19T16:01:58.103Z,99208.50
2023-01-19T16:05:00.671Z,99215.44
2023-01-19T16:08:03.147Z,99225.59
2023-01-19T16:11:10.975Z,99242.72
2023-01-19T16:14:13.506Z,99245.22
2023-01-19T16:17:16.258Z,99256.97
2023-01-19T16:20:18.744Z,99270.06
2023-01-19T16:23:21.869Z,99267.91
2023-01-19T16:26:34.206Z,99271.50
2023-01-19T16:29:37.284Z,99280.69
2023-01-19T16:32:39.887Z,99293.72
2023-01-19T16:35:42.314Z,99285.13
2023-01-19T16:38:44.809Z,99289.47
2023-01-19T16:41:47.866Z,99295.75
2023-01-19T16:44:50.313Z,99317.88
2023-01-19T16:47:52.708Z,99312.31
2023-01-19T16:51:04.306Z,99324.97
2023-01-19T16:54:07.524Z,99334.88
2023-01-19T16:57:11.206Z,99351.78
2023-01-19T17:00:14.212Z,99360.91
2023-01-19T17:03:17.775Z,99346.13
2023-01-19T17:06:24.811Z,99359.06
2023-01-19T17:09:27.504Z,99356.84
2023-01-19T17:12:32.247Z,99348.88
2023-01-19T17:15:35.356Z,99351.09
2023-01-19T17:18:38.247Z,99380.13
2023-01-19T17:21:40.822Z,99387.97
2023-01-19T17:24:44.652Z,99386.47
2023-01-19T17:27:47.201Z,99390.91
2023-01-19T17:30:51.462Z,99375.59
2023-01-19T17:33:54.286Z,99399.13
2023-01-19T17:37:02.911Z,99392.69
2023-01-19T17:40:06.403Z,99403.88
2023-01-19T17:43:12.256Z,99386.81
2023-01-19T17:46:15.248Z,99398.75
2023-01-19T17:49:17.787Z,99401.31
2023-01-19T17:52:20.907Z,99405.56
2023-01-19T17:55:23.894Z,99415.34
2023-01-19T17:58:26.626Z,99418.91
2023-01-19T18:01:32.161Z,99416.69
2023-01-19T18:04:37.909Z,99432.53
2023-01-19T18:07:40.696Z,99417.28
2023-01-19T18:10:43.515Z,99412.66
2023-01-19T18:13:48.343Z,99416.84
2023-01-19T18:16:51.035Z,99424.25
2023-01-19T18:19:54.807Z,99428.47
2023-01-19T18:22:57.746Z,99439.63
2023-01-19T18:26:05.222Z,99438.31
2023-01-19T18:29:08.727Z,99442.47
2023-01-19T18:32:11.706Z,99444.97
2023-01-19T18:35:14.491Z,99428.59
2023-01-19T18:38:17.223Z,99431.47
2023-01-19T18:41:21.435Z,99439.25
2023-01-19T18:44:24.972Z,99442.81
2023-01-19T18:47:28.316Z,99436.94
2023-01-19T18:50:31.598Z,99450.69
2023-01-19T18:53:35.014Z,99432.91
2023-01-19T18:56:37.501Z,99434.44
2023-01-19T18:59:43.885Z,99441.22
2023-01-19T19:02:47.344Z,99438.09
2023-01-19T19:05:50.441Z,99450.91
2023-01-19T19:08:56.924Z,99451.03
2023-01-19T19:12:00.024Z,99458.34
2023-01-19T19:15:03.256Z,99455.13
2023-01-19T19:18:06.146Z,99472.09
2023-01-19T19:21:11.007Z,99476.22
2023-01-19T19:24:13.863Z,99477.81
2023-01-19T19:27:17.809Z,99490.97
2023-01-19T19:30:21.292Z,99483.28
2023-01-19T19:33:23.884Z,99488.34
2023-01-19T19:36:28.693Z,99490.63
2023-01-19T19:39:31.871Z,99509.50
2023-01-19T19:42:34.767Z,99490.00
2023-01-19T19:45:38.464Z,99511.44
2023-01-19T19:48:42.005Z,99507.16
2023-01-19T19:51:44.847Z,99515.53
2023-01-19T19:54:50.937Z,99518.84
2023-01-19T19:57:54.874Z,99528.41
2023-01-19T20:00:57.936Z,99527.75
2023-01-19T20:04:06.873Z,99543.31
2023-01-19T20:07:09.522Z,99540.19
2023-01-19T20:10:12.383Z,99543.50
2023-01-19T20:13:17.882Z,99545.06
2023-01-19T20:16:23.291Z,99541.53
2023-01-19T20:19:26.633Z,99540.28
2023-01-19T20:22:29.420Z,99554.28
2023-01-19T20:25:33.211Z,99549.16
2023-01-19T20:28:36.499Z,99547.59
2023-01-19T20:31:44.573Z,99536.41
2023-01-19T20:34:47.466Z,99530.97
2023-01-19T20:37:49.892Z,99534.88
2023-01-19T20:40:53.470Z,99553.94
2023-01-19T20:43:56.200Z,99540.41
2023-01-19T20:46:58.879Z,99564.31
2023-01-19T20:50:02.442Z,99559.19
2023-01-19T20:53:05.312Z,99571.72
2023-01-19T20:56:11.513Z,99561.09
2023-01-19T20:59:14.441Z,99567.69
2023-01-19T21:02:17.663Z,99564.31
2023-01-19T21:05:20.551Z,99554.69
2023-01-19T21:08:23.263Z,99541.53
2023-01-19T21:11:26.484Z,99550.22
2023-01-19T21:14:29.438Z,99558.19
2023-01-19T21:17:32.460Z,99559.78
2023-01-19T21:20:34.952Z,99566.72
2023-01-19T21:23:37.420Z,99563.38
2023-01-19T21:26:41.763Z,99559.19
2023-01-19T21:29:44.597Z,99562.06
2023-01-19T21:32:47.292Z,99568.44
2023-01-19T21:35:55.561Z,99577.06
2023-01-19T21:39:00.900Z,99575.13
2023-01-19T21:42:03.753Z,99580.22
2023-01-19T21:45:08.013Z,99592.53
2023-01-19T21:48:10.548Z,99601.28
2023-01-19T21:51:14.177Z,99607.06
2023-01-19T21:54:17.663Z,99626.78
2023-01-19T21:57:20.085Z,99664.16
2023-01-19T22:00:22.763Z,99685.81
2023-01-19T22:03:27.351Z,99687.44
2023-01-19T22:06:30.129Z,99695.66
2023-01-19T22:09:36.465Z,99678.19
2023-01-19T22:12:40.435Z,99644.41
2023-01-19T22:15:42.934Z,99630.50
2023-01-19T22:18:50.432Z,99621.00
2023-01-19T22:21:52.912Z,99620.47
2023-01-19T22:24:55.501Z,99635.59
2023-01-19T22:27:59.373Z,99629.03
2023-01-19T22:31:13.675Z,99637.69
2023-01-19T22:34:17.933Z,99637.72
2023-01-19T22:37:20.415Z,99632.25
2023-01-19T22:40:22.844Z,99620.44
2023-01-19T22:43:25.693Z,99643.78
2023-01-19T22:46:30.512Z,99637.09
2023-01-19T22:49:33.021Z,99643.63
2023-01-19T22:52:35.422Z,99630.31
2023-01-19T22:55:37.798Z,99632.03
2023-01-19T22:58:40.760Z,99630.97
2023-01-19T23:01:44.446Z,99633.19
2023-01-19T23:04:47.047Z,99628.53
2023-01-19T23:07:49.635Z,99610.75
2023-01-19T23:10:52.083Z,99604.81
2023-01-19T23:13:55.436Z,99594.81
2023-01-19T23:16:57.857Z,99596.66
2023-01-19T23:20:00.325Z,99582.94
2023-01-19T23:23:02.829Z,99585.78
2023-01-19T23:26:11.752Z,99594.81
2023-01-19T23:29:15.485Z,99597.56
2023-01-19T23:32:17.872Z,99595.13
2023-01-19T23:35:20.240Z,99596.72
2023-01-19T23:38:23.069Z,99604.34
2023-01-19T23:41:26.312Z,99588.69
2023-01-19T23:44:28.747Z,99609.03
2023-01-19T23:47:32.779Z,99622.72
2023-01-19T23:50:38.819Z,99624.03
2023-01-19T23:53:41.692Z,99623.06
2023-01-19T23:56:44.119Z,99623.25
2023-01-19T23:59:46.571Z,99629.38
